Circle Line Brooklyn — WDE8160 — position and weather

sailwx.info

Track history (hours):
 
Tides and Currents Weather Stations Pressure Air Temp Water Temp Dewpoint Dewpoint Depression Visibility Wind Speed Wind Dir Waves Ship Positions

Circle Line Brooklyn

Owner: Circle Line Sight Seeing Yachts Inc., New York, NY. More information available from US FCC via Universal Licensing System and Coast Guard Vessel Documentation Center.

Last reported at 2017-Feb-10 17:17 UTC. Time now 2017-Feb-25 13:49 UTC.
Position N 40°55' W 073°55'.
Warning: this ship's position is 14 days out of date.

MMSI: 367402250.

Date/timePositionNaut miles runAvg speedWind from/ knotsBaromVisibWave heightAir tempDewpointWater temp
2017-Feb-10 17:17N 40°55' W 073°55'1012.9
2017-Feb-10 16:33N 40°46' W 074°00'0 0.1
2017-Feb-10 15:28N 40°46' W 074°00'0 0.0
2017-Feb-10 14:31N 40°46' W 074°00'3 0.1
2017-Feb-08 21:33N 40°42' W 073°60'3 3.5
2017-Feb-08 20:33N 40°46' W 074°00'0 0.0
2017-Feb-08 19:31N 40°46' W 074°00'3 2.8
2017-Feb-08 18:19N 40°47' W 073°56'810.1
2017-Feb-08 17:33N 40°41' W 074°02'5 4.6
2017-Feb-08 16:30N 40°46' W 074°00'5 5.3
2017-Feb-08 15:34N 40°41' W 074°03'5 4.8
2017-Feb-08 14:32N 40°46' W 074°00'4 0.2
2017-Feb-07 21:33N 40°42' W 074°01'4 3.8
2017-Feb-07 20:33N 40°46' W 074°00'0 0.0
2017-Feb-07 19:31N 40°46' W 074°00'3 2.4
2017-Feb-07 18:10N 40°47' W 073°56'711.7
2017-Feb-07 17:33N 40°41' W 074°02'5 4.4
2017-Feb-07 16:32N 40°46' W 074°00'5 4.9
2017-Feb-07 15:33N 40°41' W 074°02'5 2.4
2017-Feb-07 13:33N 40°46' W 074°00'4 0.2
2017-Feb-06 21:34N 40°42' W 074°00'4 3.7
2017-Feb-06 20:33N 40°46' W 074°00'0 0.0
2017-Feb-06 19:33N 40°46' W 074°00'5 4.2
2017-Feb-06 18:28N 40°49' W 073°56'910.0
2017-Feb-06 17:33N 40°41' W 074°02'5 4.5
2017-Feb-06 16:31N 40°46' W 074°00'5 4.7
2017-Feb-06 15:34N 40°41' W 074°02'5 4.1
2017-Feb-06 14:28N 40°46' W 074°00'0 0.0
2017-Feb-06 13:31N 40°46' W 074°00'4 0.2
2017-Feb-05 21:34N 40°42' W 074°01'4 3.9
2017-Feb-05 20:33N 40°46' W 074°00'0 0.0
2017-Feb-05 19:27N 40°46' W 074°00'5 3.9
2017-Feb-05 18:16N 40°49' W 073°56'912.5
2017-Feb-05 17:33N 40°41' W 074°02'4 4.5
2017-Feb-05 16:33N 40°46' W 074°00'5 4.8
2017-Feb-05 15:33N 40°41' W 074°02'5 4.7
2017-Feb-05 14:32N 40°46' W 074°00'4 0.2
2017-Feb-04 21:33N 40°42' W 074°00'4 3.7
2017-Feb-04 20:32N 40°46' W 074°00'0 0.0
2017-Feb-04 19:32N 40°46' W 074°00'5 4.1
2017-Feb-04 18:20N 40°50' W 073°56'1012.5
2017-Feb-04 17:33N 40°41' W 074°02'5 4.5
2017-Feb-04 16:28N 40°46' W 074°00'5 5.3
2017-Feb-04 15:33N 40°41' W 074°02'5 4.6
2017-Feb-04 14:31N 40°46' W 074°00'4 0.2
2017-Feb-03 21:33N 40°42' W 074°00'4 3.6
2017-Feb-03 20:33N 40°46' W 074°00'0 0.0
2017-Feb-03 19:31N 40°46' W 074°00'6 5.6
2017-Feb-03 18:30N 40°50' W 073°56'1111.4
2017-Feb-03 17:34N 40°41' W 074°03'5 4.4
2017-Feb-03 16:25N 40°46' W 074°00'5 5.7
2017-Feb-03 15:33N 40°41' W 074°02'5 4.8
2017-Feb-03 14:32N 40°46' W 074°00'0 0.0
2017-Feb-03 13:32N 40°46' W 074°00'0 0.0
2017-Feb-02 22:14N 40°46' W 074°00'4 5.8
2017-Feb-02 21:33N 40°42' W 074°01'4 3.9
2017-Feb-02 20:33N 40°46' W 074°00'0 0.0
2017-Feb-02 19:32N 40°46' W 074°00'3 1.8
2017-Feb-02 18:06N 40°46' W 073°57'712.1
2017-Feb-02 17:33N 40°41' W 074°03'5 4.9
2017-Feb-02 16:33N 40°46' W 074°00'5 5.0
2017-Feb-02 15:33N 40°41' W 074°03'5 4.8
2017-Feb-02 14:32N 40°46' W 074°00'4 0.2
2017-Feb-01 21:33N 40°42' W 074°00'4 3.7
2017-Feb-01 20:32N 40°46' W 074°00'0 0.0
2017-Feb-01 19:31N 40°46' W 074°00'3 1.9
2017-Feb-01 18:09N 40°46' W 073°57'711.2
2017-Feb-01 17:33N 40°41' W 074°03'5 5.0
2017-Feb-01 16:33N 40°46' W 074°00'5 5.0
2017-Feb-01 15:33N 40°41' W 074°03'5 4.3
2017-Feb-01 14:22N 40°46' W 074°00'0 0.0
2017-Feb-01 12:31N 40°46' W 074°00'4 0.3
2017-Jan-31 21:34N 40°42' W 074°01'4 3.9
2017-Jan-31 20:33N 40°46' W 074°00'0 0.0
2017-Jan-31 19:31N 40°46' W 074°00'3 2.4
2017-Jan-31 18:12N 40°47' W 073°56'710.8
2017-Jan-31 17:33N 40°41' W 074°02'  
Track history (hours):
 
Tides and Currents Weather Stations Pressure Air Temp Water Temp Dewpoint Dewpoint Depression Visibility Wind Speed Wind Dir Waves Ship Positions

Circle Line Brooklyn

Owner: Circle Line Sight Seeing Yachts Inc., New York, NY. More information available from US FCC via Universal Licensing System and Coast Guard Vessel Documentation Center.

Last reported at 2017-Feb-10 17:17 UTC. Time now 2017-Feb-25 13:49 UTC.
Position N 40°55' W 073°55'.
Warning: this ship's position is 14 days out of date.

MMSI: 367402250.

Date/timePositionNaut miles runAvg speedWind from/ knotsBaromVisibWave heightAir tempDewpointWater temp
2017-Feb-10 17:17N 40°55' W 073°55'1012.9
2017-Feb-10 16:33N 40°46' W 074°00'0 0.1
2017-Feb-10 15:28N 40°46' W 074°00'0 0.0
2017-Feb-10 14:31N 40°46' W 074°00'3 0.1
2017-Feb-08 21:33N 40°42' W 073°60'3 3.5
2017-Feb-08 20:33N 40°46' W 074°00'0 0.0
2017-Feb-08 19:31N 40°46' W 074°00'3 2.8
2017-Feb-08 18:19N 40°47' W 073°56'810.1
2017-Feb-08 17:33N 40°41' W 074°02'5 4.6
2017-Feb-08 16:30N 40°46' W 074°00'5 5.3
2017-Feb-08 15:34N 40°41' W 074°03'5 4.8
2017-Feb-08 14:32N 40°46' W 074°00'4 0.2
2017-Feb-07 21:33N 40°42' W 074°01'4 3.8
2017-Feb-07 20:33N 40°46' W 074°00'0 0.0
2017-Feb-07 19:31N 40°46' W 074°00'3 2.4
2017-Feb-07 18:10N 40°47' W 073°56'711.7
2017-Feb-07 17:33N 40°41' W 074°02'5 4.4
2017-Feb-07 16:32N 40°46' W 074°00'5 4.9
2017-Feb-07 15:33N 40°41' W 074°02'5 2.4
2017-Feb-07 13:33N 40°46' W 074°00'4 0.2
2017-Feb-06 21:34N 40°42' W 074°00'4 3.7
2017-Feb-06 20:33N 40°46' W 074°00'0 0.0
2017-Feb-06 19:33N 40°46' W 074°00'5 4.2
2017-Feb-06 18:28N 40°49' W 073°56'910.0
2017-Feb-06 17:33N 40°41' W 074°02'5 4.5
2017-Feb-06 16:31N 40°46' W 074°00'5 4.7
2017-Feb-06 15:34N 40°41' W 074°02'5 4.1
2017-Feb-06 14:28N 40°46' W 074°00'0 0.0
2017-Feb-06 13:31N 40°46' W 074°00'4 0.2
2017-Feb-05 21:34N 40°42' W 074°01'4 3.9
2017-Feb-05 20:33N 40°46' W 074°00'0 0.0
2017-Feb-05 19:27N 40°46' W 074°00'5 3.9
2017-Feb-05 18:16N 40°49' W 073°56'912.5
2017-Feb-05 17:33N 40°41' W 074°02'4 4.5
2017-Feb-05 16:33N 40°46' W 074°00'5 4.8
2017-Feb-05 15:33N 40°41' W 074°02'5 4.7
2017-Feb-05 14:32N 40°46' W 074°00'4 0.2
2017-Feb-04 21:33N 40°42' W 074°00'4 3.7
2017-Feb-04 20:32N 40°46' W 074°00'0 0.0
2017-Feb-04 19:32N 40°46' W 074°00'5 4.1
2017-Feb-04 18:20N 40°50' W 073°56'1012.5
2017-Feb-04 17:33N 40°41' W 074°02'5 4.5
2017-Feb-04 16:28N 40°46' W 074°00'5 5.3
2017-Feb-04 15:33N 40°41' W 074°02'5 4.6
2017-Feb-04 14:31N 40°46' W 074°00'4 0.2
2017-Feb-03 21:33N 40°42' W 074°00'4 3.6
2017-Feb-03 20:33N 40°46' W 074°00'0 0.0
2017-Feb-03 19:31N 40°46' W 074°00'6 5.6
2017-Feb-03 18:30N 40°50' W 073°56'1111.4
2017-Feb-03 17:34N 40°41' W 074°03'5 4.4
2017-Feb-03 16:25N 40°46' W 074°00'5 5.7
2017-Feb-03 15:33N 40°41' W 074°02'5 4.8
2017-Feb-03 14:32N 40°46' W 074°00'0 0.0
2017-Feb-03 13:32N 40°46' W 074°00'0 0.0
2017-Feb-02 22:14N 40°46' W 074°00'4 5.8
2017-Feb-02 21:33N 40°42' W 074°01'4 3.9
2017-Feb-02 20:33N 40°46' W 074°00'0 0.0
2017-Feb-02 19:32N 40°46' W 074°00'3 1.8
2017-Feb-02 18:06N 40°46' W 073°57'712.1
2017-Feb-02 17:33N 40°41' W 074°03'5 4.9
2017-Feb-02 16:33N 40°46' W 074°00'5 5.0
2017-Feb-02 15:33N 40°41' W 074°03'5 4.8
2017-Feb-02 14:32N 40°46' W 074°00'4 0.2
2017-Feb-01 21:33N 40°42' W 074°00'4 3.7
2017-Feb-01 20:32N 40°46' W 074°00'0 0.0
2017-Feb-01 19:31N 40°46' W 074°00'3 1.9
2017-Feb-01 18:09N 40°46' W 073°57'711.2
2017-Feb-01 17:33N 40°41' W 074°03'5 5.0
2017-Feb-01 16:33N 40°46' W 074°00'5 5.0
2017-Feb-01 15:33N 40°41' W 074°03'5 4.3
2017-Feb-01 14:22N 40°46' W 074°00'0 0.0
2017-Feb-01 12:31N 40°46' W 074°00'4 0.3
2017-Jan-31 21:34N 40°42' W 074°01'4 3.9
2017-Jan-31 20:33N 40°46' W 074°00'0 0.0
2017-Jan-31 19:31N 40°46' W 074°00'3 2.4
2017-Jan-31 18:12N 40°47' W 073°56'710.8
2017-Jan-31 17:33N 40°41' W 074°02'  

Dump ship's entire track history